createdAt,value
2019-06-08T00:00:03.334Z,12.48
2019-06-08T00:02:32.018Z,12.49
2019-06-08T00:04:59.356Z,12.51
2019-06-08T00:07:26.403Z,12.58
2019-06-08T00:09:53.697Z,12.60
2019-06-08T00:12:21.311Z,12.64
2019-06-08T00:14:49.431Z,12.67
2019-06-08T00:17:30.814Z,12.69
2019-06-08T00:19:45.701Z,12.74
2019-06-08T00:22:13.666Z,12.74
2019-06-08T00:24:40.958Z,12.74
2019-06-08T00:27:08.265Z,12.75
2019-06-08T00:29:35.549Z,12.79
2019-06-08T00:32:02.669Z,12.79
2019-06-08T00:34:29.701Z,12.80
2019-06-08T00:36:56.982Z,12.79
2019-06-08T00:39:25.100Z,12.81
2019-06-08T00:41:52.196Z,12.83
2019-06-08T00:44:19.317Z,12.85
2019-06-08T00:46:46.357Z,12.85
2019-06-08T00:49:13.404Z,12.86
2019-06-08T00:51:40.433Z,12.83
2019-06-08T00:54:07.487Z,12.82
2019-06-08T00:56:34.516Z,12.81
2019-06-08T00:59:01.561Z,12.81
2019-06-08T01:01:28.593Z,12.85
2019-06-08T01:03:55.902Z,12.84
2019-06-08T01:06:23.185Z,12.84
2019-06-08T01:08:50.231Z,12.82
2019-06-08T01:11:18.621Z,12.77
2019-06-08T01:13:45.945Z,12.65
2019-06-08T01:16:13.239Z,12.53
2019-06-08T01:18:40.287Z,12.44
2019-06-08T01:21:07.571Z,12.39
2019-06-08T01:23:34.869Z,12.35
2019-06-08T01:26:01.910Z,12.35
2019-06-08T01:28:30.290Z,12.37
2019-06-08T01:30:58.369Z,12.38
2019-06-08T01:33:26.598Z,12.37
2019-06-08T01:35:53.680Z,12.21
2019-06-08T01:38:21.100Z,12.07
2019-06-08T01:40:48.343Z,11.89
2019-06-08T01:43:15.393Z,11.80
2019-06-08T01:45:42.663Z,11.69
2019-06-08T01:48:19.996Z,11.63
2019-06-08T01:50:38.579Z,11.63
2019-06-08T01:53:05.629Z,11.59
2019-06-08T01:55:33.239Z,11.52
2019-06-08T01:58:00.425Z,11.47
2019-06-08T02:00:30.221Z,11.46
2019-06-08T02:02:56.439Z,11.43
2019-06-08T02:05:24.051Z,11.43
2019-06-08T02:07:51.293Z,11.43
2019-06-08T02:10:18.623Z,11.43
2019-06-08T02:12:45.916Z,11.42
2019-06-08T02:15:13.219Z,11.40
2019-06-08T02:17:40.261Z,11.41
2019-06-08T02:20:07.321Z,11.44
2019-06-08T02:22:35.111Z,11.47
2019-06-08T02:25:02.429Z,11.49
2019-06-08T02:27:29.722Z,11.52
2019-06-08T02:29:57.020Z,11.52
2019-06-08T02:32:24.106Z,11.56
2019-06-08T02:34:51.378Z,11.57
2019-06-08T02:37:18.664Z,11.57
2019-06-08T02:39:45.729Z,11.61
2019-06-08T02:42:13.016Z,11.70
2019-06-08T02:44:40.577Z,11.73
2019-06-08T02:47:07.823Z,11.75
2019-06-08T02:49:35.377Z,11.75
2019-06-08T02:52:02.820Z,11.76
2019-06-08T02:54:31.936Z,11.78
2019-06-08T02:56:58.852Z,11.78
2019-06-08T02:59:25.905Z,11.81
2019-06-08T03:01:52.948Z,11.82
2019-06-08T03:04:19.988Z,11.83
2019-06-08T03:06:47.336Z,11.83
2019-06-08T03:09:14.367Z,11.83
2019-06-08T03:11:41.570Z,11.83
2019-06-08T03:14:08.980Z,11.85
2019-06-08T03:16:38.343Z,11.87
2019-06-08T03:19:21.156Z,11.91
2019-06-08T03:21:35.654Z,11.99
2019-06-08T03:24:03.111Z,12.02
2019-06-08T03:26:32.020Z,12.01
2019-06-08T03:28:59.182Z,12.04
2019-06-08T03:31:26.510Z,12.09
2019-06-08T03:33:56.188Z,12.10
2019-06-08T03:36:23.619Z,12.12
2019-06-08T03:38:50.654Z,12.13
2019-06-08T03:41:17.712Z,12.16
2019-06-08T03:43:45.041Z,12.19
2019-06-08T03:46:12.094Z,12.21
2019-06-08T03:48:40.128Z,12.24
2019-06-08T03:51:08.536Z,12.25
2019-06-08T03:53:37.767Z,12.29
2019-06-08T03:56:04.657Z,12.32
2019-06-08T03:58:34.179Z,12.34
2019-06-08T04:01:01.337Z,12.37
2019-06-08T04:03:28.675Z,12.39
2019-06-08T04:05:56.972Z,12.39
2019-06-08T04:08:24.023Z,12.44
2019-06-08T04:10:51.078Z,12.48
2019-06-08T04:13:18.429Z,12.51
2019-06-08T04:15:47.012Z,12.57
2019-06-08T04:18:14.283Z,12.57
2019-06-08T04:20:45.022Z,12.62
2019-06-08T04:23:10.384Z,12.63
2019-06-08T04:25:40.458Z,12.62
2019-06-08T04:28:07.616Z,12.65
2019-06-08T04:30:35.041Z,12.63
2019-06-08T04:33:02.363Z,12.65
2019-06-08T04:35:30.670Z,12.72
2019-06-08T04:37:57.703Z,12.76
2019-06-08T04:40:24.750Z,12.80
2019-06-08T04:42:52.096Z,12.83
2019-06-08T04:45:19.479Z,12.84
2019-06-08T04:47:48.228Z,12.89
2019-06-08T04:50:22.459Z,12.94
2019-06-08T04:52:44.931Z,12.99
2019-06-08T04:55:12.166Z,13.02
2019-06-08T04:57:41.860Z,13.09
2019-06-08T05:00:13.114Z,13.16
2019-06-08T05:02:39.344Z,13.22
2019-06-08T05:05:06.794Z,13.22
2019-06-08T05:07:34.147Z,13.25
2019-06-08T05:10:01.186Z,13.29
2019-06-08T05:12:29.579Z,13.28
2019-06-08T05:14:56.944Z,13.31
2019-06-08T05:17:23.999Z,13.30
2019-06-08T05:19:51.038Z,13.34
2019-06-08T05:22:19.554Z,13.31
2019-06-08T05:24:47.503Z,13.29
2019-06-08T05:27:14.931Z,13.29
2019-06-08T05:29:43.248Z,13.39
2019-06-08T05:32:10.609Z,13.43
2019-06-08T05:34:37.737Z,13.51
2019-06-08T05:37:05.936Z,13.65
2019-06-08T05:39:32.977Z,13.80
2019-06-08T05:42:00.290Z,13.79
2019-06-08T05:44:27.645Z,13.95
2019-06-08T05:46:54.694Z,13.97
2019-06-08T05:49:22.984Z,14.17
2019-06-08T05:51:50.553Z,14.22
2019-06-08T05:54:17.595Z,14.21
2019-06-08T05:56:45.976Z,14.32
2019-06-08T05:59:13.530Z,14.29
2019-06-08T06:01:42.394Z,14.08
2019-06-08T06:04:09.784Z,14.00
2019-06-08T06:06:36.827Z,14.10
2019-06-08T06:09:04.181Z,14.30
2019-06-08T06:11:31.471Z,14.22
2019-06-08T06:13:58.523Z,14.11
2019-06-08T06:16:25.563Z,13.93
2019-06-08T06:18:52.971Z,13.95
2019-06-08T06:21:20.323Z,13.86
2019-06-08T06:23:47.373Z,13.69
2019-06-08T06:26:14.727Z,13.69
2019-06-08T06:28:43.251Z,13.77
2019-06-08T06:31:10.655Z,13.91
2019-06-08T06:33:37.711Z,13.97
2019-06-08T06:36:04.759Z,14.16
2019-06-08T06:38:31.820Z,14.33
2019-06-08T06:40:59.211Z,14.55
2019-06-08T06:43:26.270Z,14.70
2019-06-08T06:45:53.572Z,14.87
2019-06-08T06:48:23.409Z,14.74
2019-06-08T06:50:50.422Z,14.79
2019-06-08T06:53:17.461Z,14.82
2019-06-08T06:55:44.901Z,14.94
2019-06-08T06:58:12.232Z,15.02
2019-06-08T07:00:39.272Z,15.13
2019-06-08T07:03:06.714Z,15.10
2019-06-08T07:05:34.048Z,15.11
2019-06-08T07:08:01.103Z,15.07
2019-06-08T07:10:28.471Z,15.01
2019-06-08T07:12:55.804Z,14.87
2019-06-08T07:15:23.133Z,14.98
2019-06-08T07:17:50.180Z,15.34
2019-06-08T07:22:59.080Z,16.07
2019-06-08T07:25:26.167Z,16.96
2019-06-08T07:27:54.948Z,17.51
2019-06-08T07:30:22.007Z,18.37
2019-06-08T07:32:49.314Z,18.27
2019-06-08T07:35:16.648Z,18.79
2019-06-08T07:37:51.667Z,18.68
2019-06-08T07:40:19.118Z,19.40
2019-06-08T07:42:47.644Z,18.84
2019-06-08T07:45:15.382Z,18.01
2019-06-08T07:47:42.747Z,18.68
2019-06-08T07:50:10.094Z,18.52
2019-06-08T07:52:37.140Z,19.36
2019-06-08T07:55:04.502Z,19.29
2019-06-08T07:57:32.798Z,20.30
2019-06-08T08:00:00.151Z,20.15
2019-06-08T08:02:27.279Z,19.71
2019-06-08T08:04:54.678Z,20.80
2019-06-08T08:07:22.093Z,20.64
2019-06-08T08:09:50.588Z,20.47
2019-06-08T08:12:17.971Z,20.80
2019-06-08T08:14:46.007Z,20.79
2019-06-08T08:17:13.362Z,20.88
2019-06-08T08:19:40.716Z,21.25
2019-06-08T08:22:22.264Z,21.23
2019-06-08T08:24:38.619Z,20.97
2019-06-08T08:27:08.459Z,21.21
2019-06-08T08:29:38.019Z,20.69
2019-06-08T08:32:03.882Z,20.86
2019-06-08T08:34:33.447Z,20.54
2019-06-08T08:37:05.932Z,20.63
2019-06-08T08:39:29.874Z,20.27
2019-06-08T08:42:02.948Z,20.22
2019-06-08T08:44:28.232Z,19.99
2019-06-08T08:46:56.206Z,20.69
2019-06-08T08:52:17.321Z,20.92
2019-06-08T08:54:44.130Z,20.75
2019-06-08T08:57:11.491Z,20.93
2019-06-08T08:59:38.551Z,20.88
2019-06-08T09:02:08.374Z,20.77
2019-06-08T09:04:34.680Z,21.09
2019-06-08T09:07:05.582Z,21.85
2019-06-08T09:09:30.822Z,21.88
2019-06-08T09:12:02.319Z,21.69
2019-06-08T09:14:28.074Z,21.50
2019-06-08T09:16:56.366Z,21.50
2019-06-08T09:19:23.949Z,22.27
2019-06-08T09:21:52.530Z,21.96
2019-06-08T09:24:20.303Z,21.76
2019-06-08T09:26:47.758Z,22.11
2019-06-08T09:29:18.766Z,21.63
2019-06-08T09:31:45.217Z,22.06
2019-06-08T09:34:15.483Z,22.13
2019-06-08T09:36:41.569Z,22.30
2019-06-08T09:39:12.616Z,22.53
2019-06-08T09:41:38.097Z,21.89
2019-06-08T09:44:08.178Z,22.06
2019-06-08T09:46:34.599Z,21.91
2019-06-08T09:49:06.496Z,22.01
2019-06-08T09:51:31.016Z,21.87
2019-06-08T09:54:02.069Z,22.02
2019-06-08T09:56:28.298Z,22.04
2019-06-08T09:58:57.379Z,22.00
2019-06-08T10:01:24.278Z,21.91
2019-06-08T10:03:51.321Z,22.35
2019-06-08T10:06:18.452Z,22.45
2019-06-08T10:08:47.933Z,21.59
2019-06-08T10:11:14.482Z,22.57
2019-06-08T10:13:43.332Z,22.37
2019-06-08T10:16:13.035Z,22.36
2019-06-08T10:18:51.482Z,22.50
2019-06-08T10:21:21.071Z,23.05
2019-06-08T10:23:48.398Z,23.24
2019-06-08T10:26:17.830Z,23.51
2019-06-08T10:28:45.023Z,23.77
2019-06-08T10:31:12.102Z,23.70
2019-06-08T10:33:40.502Z,23.55
2019-06-08T10:36:12.278Z,23.58
2019-06-08T10:38:40.910Z,23.73
2019-06-08T10:41:10.937Z,23.57
2019-06-08T10:43:34.196Z,24.39
2019-06-08T10:46:20.707Z,24.07
2019-06-08T10:48:48.446Z,24.94
2019-06-08T10:51:14.770Z,24.41
2019-06-08T10:53:48.386Z,24.76
2019-06-08T10:56:12.299Z,25.01
2019-06-08T10:58:39.631Z,24.91
2019-06-08T11:01:11.148Z,25.23
2019-06-08T11:06:26.974Z,25.72
2019-06-08T11:08:54.013Z,26.52
2019-06-08T11:11:21.312Z,26.54
2019-06-08T11:13:50.482Z,26.61
2019-06-08T11:16:18.909Z,26.60
2019-06-08T11:18:50.790Z,26.93
2019-06-08T11:21:15.300Z,27.63
2019-06-08T11:23:42.675Z,27.28
2019-06-08T11:26:19.156Z,27.14
2019-06-08T11:28:39.406Z,27.17
2019-06-08T11:31:12.022Z,27.49
2019-06-08T11:33:35.639Z,27.45
2019-06-08T11:36:06.133Z,27.08
2019-06-08T11:38:31.670Z,27.68
2019-06-08T11:41:02.067Z,27.67
2019-06-08T11:43:28.709Z,27.36
2019-06-08T11:45:58.278Z,27.14
2019-06-08T11:48:28.380Z,26.65
2019-06-08T11:50:55.017Z,26.85
2019-06-08T11:53:22.360Z,27.54
2019-06-08T11:55:51.061Z,27.48
2019-06-08T11:58:22.155Z,27.84
2019-06-08T12:00:48.887Z,27.32
2019-06-08T12:03:19.192Z,27.42
2019-06-08T12:05:47.869Z,28.12
2019-06-08T12:08:17.647Z,28.15
2019-06-08T12:10:44.097Z,28.54
2019-06-08T12:13:12.865Z,28.20
2019-06-08T12:15:41.753Z,28.17
2019-06-08T12:18:10.958Z,27.94
2019-06-08T12:20:37.782Z,28.27
2019-06-08T12:23:05.910Z,29.00
2019-06-08T12:25:37.745Z,29.43
2019-06-08T12:30:38.438Z,29.45
2019-06-08T12:35:57.951Z,29.60
2019-06-08T12:38:34.245Z,29.71
2019-06-08T12:41:01.127Z,29.38
2019-06-08T12:46:01.447Z,27.40
2019-06-08T12:48:29.588Z,26.33
2019-06-08T12:51:17.269Z,25.72
2019-06-08T12:56:22.237Z,24.32
2019-06-08T12:58:47.625Z,23.45
2019-06-08T13:01:15.047Z,23.45
2019-06-08T13:03:42.400Z,23.10
2019-06-08T13:06:12.071Z,22.74
2019-06-08T13:08:38.549Z,22.65
2019-06-08T13:11:14.150Z,22.56
2019-06-08T13:13:41.467Z,22.26
2019-06-08T13:16:08.821Z,21.96
2019-06-08T13:18:40.457Z,21.90
2019-06-08T13:21:16.636Z,21.80
2019-06-08T13:26:11.471Z,21.47
2019-06-08T13:31:14.782Z,21.38
2019-06-08T13:33:43.997Z,21.25
2019-06-08T13:36:12.444Z,21.17
2019-06-08T13:38:39.621Z,21.18
2019-06-08T13:41:08.620Z,21.20
2019-06-08T13:43:35.407Z,21.12
2019-06-08T13:46:02.465Z,21.01
2019-06-08T13:48:43.766Z,20.94
2019-06-08T13:51:13.930Z,20.89
2019-06-08T13:53:41.327Z,21.01
2019-06-08T13:56:08.381Z,21.10
2019-06-08T13:58:38.108Z,21.04
2019-06-08T14:01:05.226Z,21.02
2019-06-08T14:03:38.655Z,21.02
2019-06-08T14:06:07.668Z,21.04
2019-06-08T14:08:34.826Z,21.10
2019-06-08T14:11:02.226Z,21.06
2019-06-08T14:13:34.076Z,21.05
2019-06-08T14:18:42.877Z,20.95
2019-06-08T14:21:09.947Z,20.89
2019-06-08T14:23:41.458Z,20.91
2019-06-08T14:26:08.405Z,20.98
2019-06-08T14:28:37.945Z,20.87
2019-06-08T14:31:08.136Z,20.98
2019-06-08T14:33:35.060Z,20.98
2019-06-08T14:36:02.119Z,20.74
2019-06-08T14:38:37.936Z,20.74
2019-06-08T14:40:59.261Z,20.77
2019-06-08T14:43:29.972Z,20.77
2019-06-08T14:45:57.959Z,20.75
2019-06-08T14:48:31.184Z,20.79
2019-06-08T14:50:54.437Z,20.83
2019-06-08T14:53:22.961Z,20.87
2019-06-08T14:56:04.879Z,20.92
2019-06-08T14:58:24.083Z,20.87
2019-06-08T15:00:48.869Z,20.76
2019-06-08T15:03:18.079Z,20.75
2019-06-08T15:05:49.659Z,20.76
2019-06-08T15:08:17.540Z,20.78
2019-06-08T15:10:44.667Z,20.70
2019-06-08T15:13:11.799Z,20.61
2019-06-08T15:15:39.151Z,20.60
2019-06-08T15:18:10.499Z,20.62
2019-06-08T15:20:37.809Z,20.62
2019-06-08T15:23:04.312Z,20.59
2019-06-08T15:25:32.901Z,20.55
2019-06-08T15:28:01.311Z,20.52
2019-06-08T15:30:31.014Z,20.47
2019-06-08T15:32:58.675Z,20.45
2019-06-08T15:35:27.345Z,20.47
2019-06-08T15:37:58.206Z,20.48
2019-06-08T15:40:25.660Z,20.51
2019-06-08T15:42:52.882Z,20.56
2019-06-08T15:47:52.905Z,20.59
2019-06-08T15:50:22.235Z,20.51
2019-06-08T15:52:49.372Z,20.40
2019-06-08T15:55:19.353Z,20.38
2019-06-08T15:57:45.601Z,20.50
2019-06-08T16:00:12.896Z,20.55
2019-06-08T16:02:44.090Z,20.63
2019-06-08T16:05:12.602Z,20.72
2019-06-08T16:07:39.596Z,20.79
2019-06-08T16:10:06.648Z,20.82
2019-06-08T16:12:35.111Z,20.70
2019-06-08T16:15:03.508Z,20.64
2019-06-08T16:17:37.331Z,20.61
2019-06-08T16:20:04.394Z,20.61
2019-06-08T16:22:31.816Z,20.60
2019-06-08T16:27:32.176Z,20.63
2019-06-08T16:29:59.843Z,20.69
2019-06-08T16:32:27.438Z,20.72
2019-06-08T16:34:54.496Z,20.87
2019-06-08T16:37:21.552Z,20.72
2019-06-08T16:39:51.752Z,20.65
2019-06-08T16:45:14.763Z,20.45
2019-06-08T16:47:47.068Z,20.43
2019-06-08T16:50:24.517Z,20.37
2019-06-08T16:55:53.196Z,20.26
2019-06-08T16:58:27.875Z,20.24
2019-06-08T17:00:55.314Z,20.19
2019-06-08T17:03:30.781Z,20.13
2019-06-08T17:05:57.970Z,19.96
2019-06-08T17:08:29.478Z,19.99
2019-06-08T17:10:58.896Z,19.98
2019-06-08T17:13:40.119Z,19.95
2019-06-08T17:16:08.752Z,19.94
2019-06-08T17:18:49.228Z,19.89
2019-06-08T17:21:16.393Z,19.78
2019-06-08T17:23:44.463Z,19.72
2019-06-08T17:26:12.657Z,19.68
2019-06-08T17:28:41.492Z,19.64
2019-06-08T17:31:08.867Z,19.56
2019-06-08T17:33:49.005Z,19.50
2019-06-08T17:36:16.054Z,19.46
2019-06-08T17:38:43.574Z,19.36
2019-06-08T17:41:11.069Z,19.31
2019-06-08T17:43:38.247Z,19.28
2019-06-08T17:46:05.255Z,19.23
2019-06-08T17:48:38.670Z,19.16
2019-06-08T17:51:06.121Z,19.10
2019-06-08T17:53:35.044Z,19.02
2019-06-08T17:56:02.479Z,18.96
2019-06-08T17:58:30.849Z,18.93
2019-06-08T18:00:58.211Z,18.89
2019-06-08T18:03:25.266Z,18.82
2019-06-08T18:05:52.301Z,18.77
2019-06-08T18:08:19.653Z,18.73
2019-06-08T18:10:48.329Z,18.71
2019-06-08T18:13:15.424Z,18.64
2019-06-08T18:15:43.697Z,18.57
2019-06-08T18:18:11.536Z,18.51
2019-06-08T18:20:40.550Z,18.44
2019-06-08T18:23:08.165Z,18.39
2019-06-08T18:25:38.794Z,18.32
2019-06-08T18:28:10.208Z,18.26
2019-06-08T18:30:34.505Z,18.19
2019-06-08T18:33:01.993Z,18.14
2019-06-08T18:35:29.370Z,18.08
2019-06-08T18:37:57.836Z,18.00
2019-06-08T18:40:27.270Z,17.93
2019-06-08T18:42:54.413Z,17.72
2019-06-08T18:45:21.694Z,17.60
2019-06-08T18:47:49.023Z,17.52
2019-06-08T18:50:17.276Z,17.46
2019-06-08T18:52:45.383Z,17.40
2019-06-08T18:55:13.791Z,17.35
2019-06-08T18:57:42.634Z,17.28
2019-06-08T19:00:11.801Z,17.21
2019-06-08T19:02:41.987Z,17.14
2019-06-08T19:05:08.406Z,17.04
2019-06-08T19:07:36.896Z,16.95
2019-06-08T19:10:16.538Z,16.86
2019-06-08T19:12:44.777Z,16.77
2019-06-08T19:15:12.576Z,16.72
2019-06-08T19:17:46.552Z,16.65
2019-06-08T19:20:09.021Z,16.53
2019-06-08T19:22:38.454Z,16.43
2019-06-08T19:25:07.695Z,16.30
2019-06-08T19:27:34.187Z,16.15
2019-06-08T19:30:01.610Z,16.06
2019-06-08T19:32:28.837Z,16.01
2019-06-08T19:34:57.990Z,15.98
2019-06-08T19:40:14.586Z,15.86
2019-06-08T19:42:51.132Z,15.75
2019-06-08T19:45:10.388Z,15.64
2019-06-08T19:47:38.422Z,15.54
2019-06-08T19:50:07.782Z,15.49
2019-06-08T19:52:34.492Z,15.45
2019-06-08T19:55:01.827Z,15.40
2019-06-08T19:57:28.925Z,15.38
2019-06-08T19:59:57.574Z,15.33
2019-06-08T20:02:27.118Z,15.26
2019-06-08T20:04:53.817Z,15.19
2019-06-08T20:07:21.212Z,15.12
2019-06-08T20:09:49.669Z,15.08
2019-06-08T20:12:18.610Z,15.03
2019-06-08T20:14:48.025Z,14.99
2019-06-08T20:17:17.208Z,14.94
2019-06-08T20:19:44.803Z,14.92
2019-06-08T20:22:11.913Z,14.90
2019-06-08T20:24:39.275Z,14.87
2019-06-08T20:27:07.711Z,14.84
2019-06-08T20:29:37.978Z,14.81
2019-06-08T20:32:04.815Z,14.76
2019-06-08T20:34:32.150Z,14.73
2019-06-08T20:37:01.387Z,14.68
2019-06-08T20:39:27.952Z,14.63
2019-06-08T20:41:56.226Z,14.63
2019-06-08T20:44:29.959Z,14.60
2019-06-08T20:46:57.620Z,14.57
2019-06-08T20:49:24.576Z,14.52
2019-06-08T20:51:52.542Z,14.49
2019-06-08T20:54:19.663Z,14.48
2019-06-08T20:56:47.889Z,14.45
2019-06-08T20:59:29.632Z,14.43
2019-06-08T21:01:44.200Z,14.41
2019-06-08T21:04:11.575Z,14.41
2019-06-08T21:06:38.643Z,14.39
2019-06-08T21:09:07.676Z,14.38
2019-06-08T21:11:34.772Z,14.35
2019-06-08T21:14:01.814Z,14.32
2019-06-08T21:16:29.004Z,14.29
2019-06-08T21:18:57.990Z,14.28
2019-06-08T21:21:25.517Z,14.29
2019-06-08T21:23:54.776Z,14.29
2019-06-08T21:26:21.968Z,14.28
2019-06-08T21:28:52.297Z,14.28
2019-06-08T21:31:18.116Z,14.27
2019-06-08T21:33:49.081Z,14.23
2019-06-08T21:36:14.166Z,14.17
2019-06-08T21:38:41.204Z,14.15
2019-06-08T21:41:08.479Z,14.11
2019-06-08T21:43:37.422Z,14.09
2019-06-08T21:46:04.901Z,14.05
2019-06-08T21:48:31.945Z,14.03
2019-06-08T21:51:01.509Z,14.02
2019-06-08T21:53:29.326Z,13.98
2019-06-08T21:55:56.388Z,13.94
2019-06-08T21:58:23.728Z,13.91
2019-06-08T22:00:51.173Z,13.91
2019-06-08T22:03:18.852Z,13.88
2019-06-08T22:05:47.319Z,13.85
2019-06-08T22:08:14.422Z,13.81
2019-06-08T22:10:41.474Z,13.80
2019-06-08T22:13:12.248Z,13.77
2019-06-08T22:15:38.056Z,13.74
2019-06-08T22:18:07.802Z,13.73
2019-06-08T22:20:33.904Z,13.71
2019-06-08T22:23:01.191Z,13.68
2019-06-08T22:25:29.316Z,13.68
2019-06-08T22:27:58.414Z,13.64
2019-06-08T22:30:36.419Z,13.61
2019-06-08T22:32:55.606Z,13.58
2019-06-08T22:35:23.067Z,13.57
2019-06-08T22:37:51.713Z,13.56
2019-06-08T22:40:18.884Z,13.54
2019-06-08T22:42:47.909Z,13.52
2019-06-08T22:45:14.917Z,13.53
2019-06-08T22:47:42.304Z,13.54
2019-06-08T22:50:09.657Z,13.49
2019-06-08T22:52:37.521Z,13.45
2019-06-08T22:55:09.692Z,13.40
2019-06-08T22:57:34.073Z,13.36
2019-06-08T23:00:07.853Z,13.37
2019-06-08T23:02:31.182Z,13.35
2019-06-08T23:05:01.337Z,13.32
2019-06-08T23:07:32.367Z,13.26
2019-06-08T23:09:59.337Z,13.07
2019-06-08T23:12:24.736Z,13.03
2019-06-08T23:14:52.114Z,12.96
2019-06-08T23:17:19.406Z,12.97
2019-06-08T23:19:48.169Z,12.99
2019-06-08T23:22:17.644Z,12.95
2019-06-08T23:24:44.471Z,12.90
2019-06-08T23:27:11.858Z,12.87
2019-06-08T23:29:38.906Z,12.89
2019-06-08T23:32:11.111Z,12.90
2019-06-08T23:34:35.001Z,12.91
2019-06-08T23:37:04.537Z,12.88
2019-06-08T23:39:31.033Z,12.83
2019-06-08T23:41:58.076Z,12.82
2019-06-08T23:44:25.221Z,12.83
2019-06-08T23:46:52.550Z,12.90
2019-06-08T23:49:21.033Z,12.93
2019-06-08T23:51:48.084Z,12.95
2019-06-08T23:54:15.433Z,12.93
2019-06-08T23:56:42.490Z,12.86
2019-06-08T23:59:09.832Z,12.82
